Time;durP1;ratioP1;P1;durP2;ratioP2;P2;SDS_P1;SDS_P2;PMS_P1;PMS_P2;Temp;Humidity;BMP_temperature;BMP_pressure;BME280_temperature;BME280_humidity;BME280_pressure;Samples;Min_cycle;Max_cycle;Signal;HPM_P1;HPM_P2
2024/01/03 00:02:11;;;;;;;;;;;;;;;;;;5134793;28;19998;-43
2024/01/03 00:04:37;;;;;;;;;;;;;;;;;;5134943;28;20270;-39
2024/01/03 00:07:02;;;;;;;;;;;;;;;;;;5133978;27;20398;-41
2024/01/03 00:09:28;;;;;;;;;;;;;;;;;;5135220;28;19972;-41
2024/01/03 00:11:55;;;;;;;;;;;;;;;;;;5134871;28;20006;-43
2024/01/03 00:14:20;;;;;;;;;;;;;;;;;;5135576;28;19957;-41
2024/01/03 00:16:46;;;;;;;;;;;;;;;;;;5134906;28;19989;-42
2024/01/03 00:19:11;;;;;;;;;;;;;;;;;;5134997;28;19973;-39
2024/01/03 00:21:37;;;;;;;;;;;;;;;;;;5132733;28;20036;-43
2024/01/03 00:24:02;;;;;;;;;;;;;;;;;;5133290;28;19923;-40
2024/01/03 00:26:27;;;;;;;;;;;;;;;;;;5134762;28;19958;-40
2024/01/03 00:28:53;;;;;;;;;;;;;;;;;;5134700;28;20000;-42
2024/01/03 00:31:18;;;;;;;;;;;;;;;;;;5134641;28;19973;-40
2024/01/03 00:33:44;;;;;;;;;;;;;;;;;;5134837;28;19986;-41
2024/01/03 00:36:09;;;;;;;;;;;;;;;;;;5134733;28;19928;-39
2024/01/03 00:38:35;;;;;;;;;;;;;;;;;;5134469;28;19974;-41
2024/01/03 00:41:00;;;;;;;;;;;;;;;;;;5134527;28;19932;-39
2024/01/03 00:43:26;;;;;;;;;;;;;;;;;;5134573;28;19930;-40
2024/01/03 00:45:51;;;;;;;;;;;;;;;;;;5133950;28;20014;-39
2024/01/03 00:48:17;;;;;;;;;;;;;;;;;;5134293;28;19923;-40
2024/01/03 00:50:42;;;;;;;;;;;;;;;;;;5133752;28;19923;-40
2024/01/03 00:53:08;;;;;;;;;;;;;;;;;;5134680;28;19923;-40
2024/01/03 00:55:33;;;;;;;;;;;;;;;;;;5134056;28;20068;-40
2024/01/03 00:57:59;;;;;;;;;;;;;;;;;;5134201;28;19973;-41
2024/01/03 01:00:24;;;;;;;;;;;;;;;;;;5133589;28;19923;-41
2024/01/03 01:02:50;;;;;;;;;;;;;;;;;;5134527;28;19927;-40
2024/01/03 01:05:15;;;;;;;;;;;;;;;;;;5134415;28;19924;-42
2024/01/03 01:07:41;;;;;;;;;;;;;;;;;;5133668;28;19990;-41
2024/01/03 01:10:06;;;;;;;;;;;;;;;;;;5133887;28;20011;-41
2024/01/03 01:12:32;;;;;;;;;;;;;;;;;;5134065;28;20421;-41
2024/01/03 01:14:59;;;;;;;;;;;;;;;;;;5134099;28;20340;-42
2024/01/03 01:17:25;;;;;;;;;;;;;;;;;;5133421;28;19923;-41
2024/01/03 01:19:51;;;;;;;;;;;;;;;;;;5133113;27;19972;-41
2024/01/03 01:22:16;;;;;;;;;;;;;;;;;;5133978;28;19976;-41
2024/01/03 01:24:42;;;;;;;;;;;;;;;;;;5132832;28;19976;-44
2024/01/03 01:27:08;;;;;;;;;;;;;;;;;;5133568;28;20374;-41
2024/01/03 01:29:33;;;;;;;;;;;;;;;;;;5133079;28;20305;-42
2024/01/03 01:31:59;;;;;;;;;;;;;;;;;;5133610;28;20365;-41
2024/01/03 01:34:24;;;;;;;;;;;;;;;;;;5133294;27;19968;-42
2024/01/03 01:36:50;;;;;;;;;;;;;;;;;;5133595;28;20327;-40
2024/01/03 01:39:15;;;;;;;;;;;;;;;;;;5133022;28;19968;-41
2024/01/03 01:41:41;;;;;;;;;;;;;;;;;;5133432;28;19959;-42
2024/01/03 01:44:06;;;;;;;;;;;;;;;;;;5133474;28;19948;-41
2024/01/03 01:46:32;;;;;;;;;;;;;;;;;;5133061;28;19948;-43
2024/01/03 01:48:57;;;;;;;;;;;;;;;;;;5132759;28;19978;-43
2024/01/03 01:51:23;;;;;;;;;;;;;;;;;;5133048;28;20010;-44
2024/01/03 01:53:48;;;;;;;;;;;;;;;;;;5133203;28;20014;-42
2024/01/03 01:56:14;;;;;;;;;;;;;;;;;;5133172;28;20367;-43
2024/01/03 01:58:40;;;;;;;;;;;;;;;;;;5126714;28;19931;-41
2024/01/03 02:01:06;;;;;;;;;;;;;;;;;;5112935;28;19928;-41
2024/01/03 02:03:31;;;;;;;;;;;;;;;;;;5119964;28;19931;-43
2024/01/03 02:05:57;;;;;;;;;;;;;;;;;;5133045;28;19970;-40
2024/01/03 02:08:22;;;;;;;;;;;;;;;;;;5132789;28;20015;-43
2024/01/03 02:10:48;;;;;;;;;;;;;;;;;;5132786;28;19993;-42
2024/01/03 02:13:13;;;;;;;;;;;;;;;;;;5133562;28;19923;-43
2024/01/03 02:15:39;;;;;;;;;;;;;;;;;;5132957;28;20006;-43
2024/01/03 02:18:04;;;;;;;;;;;;;;;;;;5132681;28;20006;-41
2024/01/03 02:20:30;;;;;;;;;;;;;;;;;;5132662;28;19970;-42
2024/01/03 02:22:55;;;;;;;;;;;;;;;;;;5133031;27;19982;-44
2024/01/03 02:25:21;;;;;;;;;;;;;;;;;;5132671;28;20056;-41
2024/01/03 02:27:46;;;;;;;;;;;;;;;;;;5131937;28;19931;-43
2024/01/03 02:30:12;;;;;;;;;;;;;;;;;;5132787;27;20381;-42
2024/01/03 02:32:37;;;;;;;;;;;;;;;;;;5135034;28;20049;-43
2024/01/03 02:35:05;;;;;;;;;;;;;;;;;;5135755;28;19924;-42
2024/01/03 02:37:30;;;;;;;;;;;;;;;;;;5135665;28;19967;-40
2024/01/03 02:39:56;;;;;;;;;;;;;;;;;;5135932;28;20018;-42
2024/01/03 02:42:21;;;;;;;;;;;;;;;;;;5135983;28;19931;-41
2024/01/03 02:44:46;;;;;;;;;;;;;;;;;;5136172;28;19992;-42
2024/01/03 02:47:12;;;;;;;;;;;;;;;;;;5135894;28;19923;-42
2024/01/03 02:49:37;;;;;;;;;;;;;;;;;;5136014;28;20383;-41
2024/01/03 02:52:03;;;;;;;;;;;;;;;;;;5136146;28;19927;-42
2024/01/03 02:54:28;;;;;;;;;;;;;;;;;;5136501;28;19923;-43
2024/01/03 02:56:54;;;;;;;;;;;;;;;;;;5136047;28;19951;-40
2024/01/03 02:59:19;;;;;;;;;;;;;;;;;;5135604;28;20014;-40
2024/01/03 03:01:45;;;;;;;;;;;;;;;;;;5136256;28;20282;-43
2024/01/03 03:04:10;;;;;;;;;;;;;;;;;;5136433;28;19979;-41
2024/01/03 03:06:36;;;;;;;;;;;;;;;;;;5135863;28;20351;-40
2024/01/03 03:09:01;;;;;;;;;;;;;;;;;;5136428;28;20006;-41
2024/01/03 03:11:38;;;;;;;;;;;;;;;;;;5136319;28;19923;-42
2024/01/03 03:14:03;;;;;;;;;;;;;;;;;;5135747;28;19967;-39
2024/01/03 03:16:29;;;;;;;;;;;;;;;;;;5135690;28;20440;-43
2024/01/03 03:18:54;;;;;;;;;;;;;;;;;;5135437;28;20410;-41
2024/01/03 03:21:20;;;;;;;;;;;;;;;;;;5135834;28;20400;-41
2024/01/03 03:23:45;;;;;;;;;;;;;;;;;;5135691;28;19978;-40
2024/01/03 03:26:10;;;;;;;;;;;;;;;;;;5136027;28;20019;-44
2024/01/03 03:28:36;;;;;;;;;;;;;;;;;;5135600;28;19969;-41
2024/01/03 03:31:03;;;;;;;;;;;;;;;;;;5136017;28;19963;-40
2024/01/03 03:33:29;;;;;;;;;;;;;;;;;;5134776;28;19938;-42
2024/01/03 03:35:54;;;;;;;;;;;;;;;;;;5135324;28;20125;-41
2024/01/03 03:38:20;;;;;;;;;;;;;;;;;;5135036;28;20362;-41
2024/01/03 03:40:45;;;;;;;;;;;;;;;;;;5135407;28;19928;-42
2024/01/03 03:43:11;;;;;;;;;;;;;;;;;;5135715;27;19947;-41
2024/01/03 03:45:36;;;;;;;;;;;;;;;;;;5135593;28;20027;-42
2024/01/03 03:48:01;;;;;;;;;;;;;;;;;;5135286;27;20006;-41
2024/01/03 03:50:27;;;;;;;;;;;;;;;;;;5135080;28;20399;-41
2024/01/03 03:52:52;;;;;;;;;;;;;;;;;;5135559;28;20431;-41
2024/01/03 03:55:18;;;;;;;;;;;;;;;;;;5135500;28;20018;-41
2024/01/03 03:57:43;;;;;;;;;;;;;;;;;;5135263;28;19951;-40
2024/01/03 04:00:09;;;;;;;;;;;;;;;;;;5135108;28;19988;-43
2024/01/03 04:02:34;;;;;;;;;;;;;;;;;;5134531;28;19923;-40
2024/01/03 04:05:00;;;;;;;;;;;;;;;;;;5135478;28;19927;-41
2024/01/03 04:07:26;;;;;;;;;;;;;;;;;;5135124;28;19923;-41
2024/01/03 04:09:52;;;;;;;;;;;;;;;;;;5135147;28;19924;-41
2024/01/03 04:12:17;;;;;;;;;;;;;;;;;;5134854;28;19930;-44
2024/01/03 04:14:43;;;;;;;;;;;;;;;;;;5135031;28;19982;-41
2024/01/03 04:17:08;;;;;;;;;;;;;;;;;;5135246;28;20361;-45
2024/01/03 04:19:33;;;;;;;;;;;;;;;;;;5134938;28;19986;-41
2024/01/03 04:21:59;;;;;;;;;;;;;;;;;;5134724;28;19927;-43
2024/01/03 04:24:24;;;;;;;;;;;;;;;;;;5134524;28;20291;-42
2024/01/03 04:26:50;;;;;;;;;;;;;;;;;;5134317;28;19923;-43
2024/01/03 04:29:16;;;;;;;;;;;;;;;;;;5134600;28;19923;-42
2024/01/03 04:31:41;;;;;;;;;;;;;;;;;;5134587;28;19924;-42
2024/01/03 04:34:07;;;;;;;;;;;;;;;;;;5134051;28;19923;-42
2024/01/03 04:36:32;;;;;;;;;;;;;;;;;;5133839;27;20018;-41
2024/01/03 04:38:57;;;;;;;;;;;;;;;;;;5133674;28;19980;-41
2024/01/03 04:41:23;;;;;;;;;;;;;;;;;;5133888;28;19966;-41
2024/01/03 04:43:48;;;;;;;;;;;;;;;;;;5134492;28;20346;-43
2024/01/03 04:46:14;;;;;;;;;;;;;;;;;;5134444;28;19976;-40
2024/01/03 04:48:40;;;;;;;;;;;;;;;;;;5134533;28;20596;-40
2024/01/03 04:51:06;;;;;;;;;;;;;;;;;;5134418;28;19923;-39
2024/01/03 04:53:31;;;;;;;;;;;;;;;;;;5133345;27;19934;-43
2024/01/03 04:55:57;;;;;;;;;;;;;;;;;;5134740;28;20018;-41
2024/01/03 04:58:22;;;;;;;;;;;;;;;;;;5134406;28;19927;-43
2024/01/03 05:00:48;;;;;;;;;;;;;;;;;;5134111;28;20018;-41
2024/01/03 05:03:13;;;;;;;;;;;;;;;;;;5132797;28;20010;-43
2024/01/03 05:05:39;;;;;;;;;;;;;;;;;;5134463;28;19985;-40
2024/01/03 05:08:04;;;;;;;;;;;;;;;;;;5134016;28;20032;-43
2024/01/03 05:10:30;;;;;;;;;;;;;;;;;;5133681;28;19927;-43
2024/01/03 05:12:56;;;;;;;;;;;;;;;;;;5134257;28;19923;-42
2024/01/03 05:15:21;;;;;;;;;;;;;;;;;;5133718;28;20363;-40
2024/01/03 05:17:46;;;;;;;;;;;;;;;;;;5133613;28;20318;-45
2024/01/03 05:20:12;;;;;;;;;;;;;;;;;;5133436;28;19928;-43
2024/01/03 05:22:37;;;;;;;;;;;;;;;;;;5133367;28;20015;-41
2024/01/03 05:25:03;;;;;;;;;;;;;;;;;;5133250;28;19949;-41
2024/01/03 05:27:29;;;;;;;;;;;;;;;;;;5133344;28;19924;-41
2024/01/03 05:29:54;;;;;;;;;;;;;;;;;;5133586;28;20456;-41
2024/01/03 05:32:23;;;;;;;;;;;;;;;;;;5133230;28;19927;-44
2024/01/03 05:34:48;;;;;;;;;;;;;;;;;;5134047;28;19959;-39
2024/01/03 05:37:14;;;;;;;;;;;;;;;;;;5133252;27;19962;-40
2024/01/03 05:39:39;;;;;;;;;;;;;;;;;;5133347;28;19924;-41
2024/01/03 05:42:05;;;;;;;;;;;;;;;;;;5133387;28;19924;-41
2024/01/03 05:44:30;;;;;;;;;;;;;;;;;;5133391;28;20263;-43
2024/01/03 05:46:56;;;;;;;;;;;;;;;;;;5132487;28;20009;-43
2024/01/03 05:49:21;;;;;;;;;;;;;;;;;;5133593;28;19924;-42
2024/01/03 05:51:47;;;;;;;;;;;;;;;;;;5133326;28;19950;-41
2024/01/03 05:54:13;;;;;;;;;;;;;;;;;;5133573;28;19970;-43
2024/01/03 05:56:38;;;;;;;;;;;;;;;;;;5133274;28;19970;-40
2024/01/03 05:59:03;;;;;;;;;;;;;;;;;;5132738;28;19976;-40
2024/01/03 06:01:29;;;;;;;;;;;;;;;;;;5131919;28;20414;-41
2024/01/03 06:03:55;;;;;;;;;;;;;;;;;;5131597;28;19970;-41
2024/01/03 06:06:20;;;;;;;;;;;;;;;;;;5131679;27;19924;-40
2024/01/03 06:08:46;;;;;;;;;;;;;;;;;;5132104;28;19963;-42
2024/01/03 06:11:12;;;;;;;;;;;;;;;;;;5132681;28;19930;-43
2024/01/03 06:13:38;;;;;;;;;;;;;;;;;;5132371;28;19930;-44
2024/01/03 06:16:03;;;;;;;;;;;;;;;;;;5132557;28;20006;-41
2024/01/03 06:18:29;;;;;;;;;;;;;;;;;;5133314;28;19923;-43
2024/01/03 06:20:54;;;;;;;;;;;;;;;;;;5132980;28;20010;-41
2024/01/03 06:23:20;;;;;;;;;;;;;;;;;;5132703;28;20010;-45
2024/01/03 06:25:45;;;;;;;;;;;;;;;;;;5133437;28;19924;-42
2024/01/03 06:28:11;;;;;;;;;;;;;;;;;;5130720;28;20018;-42
2024/01/03 06:30:37;;;;;;;;;;;;;;;;;;5132918;28;19923;-42
2024/01/03 06:33:02;;;;;;;;;;;;;;;;;;5130153;28;20363;-39
2024/01/03 06:35:28;;;;;;;;;;;;;;;;;;5131167;27;19923;-42
2024/01/03 06:37:54;;;;;;;;;;;;;;;;;;5132647;28;19924;-40
2024/01/03 06:40:20;;;;;;;;;;;;;;;;;;5132859;27;19928;-44
2024/01/03 06:42:46;;;;;;;;;;;;;;;;;;5114462;28;19935;-42
2024/01/03 06:45:11;;;;;;;;;;;;;;;;;;5122387;28;19923;-42
2024/01/03 06:47:37;;;;;;;;;;;;;;;;;;5132457;28;20316;-41
2024/01/03 06:50:02;;;;;;;;;;;;;;;;;;5132421;28;19923;-46
2024/01/03 06:52:28;;;;;;;;;;;;;;;;;;5132997;28;20014;-44
2024/01/03 06:54:55;;;;;;;;;;;;;;;;;;5132708;28;20019;-40
2024/01/03 06:57:20;;;;;;;;;;;;;;;;;;5132440;27;19924;-43
2024/01/03 06:59:46;;;;;;;;;;;;;;;;;;5132681;28;20020;-41
2024/01/03 07:02:11;;;;;;;;;;;;;;;;;;5132731;28;20012;-44
2024/01/03 07:04:37;;;;;;;;;;;;;;;;;;5132220;28;19924;-44
2024/01/03 07:07:02;;;;;;;;;;;;;;;;;;5126081;28;19930;-43
2024/01/03 07:09:28;;;;;;;;;;;;;;;;;;5126908;28;20017;-45
2024/01/03 07:11:53;;;;;;;;;;;;;;;;;;5132698;28;19923;-40
2024/01/03 07:14:19;;;;;;;;;;;;;;;;;;5127400;28;19928;-44
2024/01/03 07:16:44;;;;;;;;;;;;;;;;;;5113160;28;20006;-44
2024/01/03 07:19:11;;;;;;;;;;;;;;;;;;5115721;28;19963;-40
2024/01/03 07:21:37;;;;;;;;;;;;;;;;;;5115784;28;20022;-44
2024/01/03 07:24:02;;;;;;;;;;;;;;;;;;5115102;28;20396;-44
2024/01/03 07:26:28;;;;;;;;;;;;;;;;;;5133737;27;20362;-41
2024/01/03 07:28:53;;;;;;;;;;;;;;;;;;5135618;28;19930;-42
2024/01/03 07:31:18;;;;;;;;;;;;;;;;;;5135435;28;19928;-42
2024/01/03 07:33:44;;;;;;;;;;;;;;;;;;5135395;28;19923;-42
2024/01/03 07:36:09;;;;;;;;;;;;;;;;;;5135328;28;19923;-44
2024/01/03 07:38:35;;;;;;;;;;;;;;;;;;5124782;28;19976;-45
2024/01/03 07:41:01;;;;;;;;;;;;;;;;;;5132114;28;20340;-41
2024/01/03 07:43:26;;;;;;;;;;;;;;;;;;5135710;28;19923;-42
2024/01/03 07:45:51;;;;;;;;;;;;;;;;;;5135320;28;19967;-39
2024/01/03 07:54:07;;;;;;;;;;;;;;;;;;5135570;28;19931;-42
2024/01/03 07:56:32;;;;;;;;;;;;;;;;;;5134353;28;19932;-42
2024/01/03 07:58:57;;;;;;;;;;;;;;;;;;5134669;28;20014;-45
2024/01/03 08:01:23;;;;;;;;;;;;;;;;;;5134789;28;19968;-41
2024/01/03 08:03:48;;;;;;;;;;;;;;;;;;5135438;28;20316;-42
2024/01/03 08:06:14;;;;;;;;;;;;;;;;;;5134755;27;20286;-41
2024/01/03 08:08:39;;;;;;;;;;;;;;;;;;5134802;28;19963;-41
2024/01/03 08:11:05;;;;;;;;;;;;;;;;;;5135262;28;20004;-42
2024/01/03 08:13:30;;;;;;;;;;;;;;;;;;5135300;28;19927;-42
2024/01/03 08:15:56;;;;;;;;;;;;;;;;;;5134733;28;20425;-41
2024/01/03 08:18:21;;;;;;;;;;;;;;;;;;5135158;28;20399;-40
2024/01/03 08:20:47;;;;;;;;;;;;;;;;;;5135079;28;19924;-43
2024/01/03 08:23:13;;;;;;;;;;;;;;;;;;5135045;28;19923;-41
2024/01/03 08:25:38;;;;;;;;;;;;;;;;;;5133403;28;19989;-40
2024/01/03 08:28:04;;;;;;;;;;;;;;;;;;5132489;27;19976;-40
2024/01/03 08:30:29;;;;;;;;;;;;;;;;;;5134118;28;19927;-43
2024/01/03 08:32:55;;;;;;;;;;;;;;;;;;5124918;28;20296;-41
2024/01/03 08:35:20;;;;;;;;;;;;;;;;;;5134045;28;20379;-40
2024/01/03 08:37:46;;;;;;;;;;;;;;;;;;5133819;28;19963;-44
2024/01/03 08:40:11;;;;;;;;;;;;;;;;;;5134856;28;20018;-40
2024/01/03 08:42:37;;;;;;;;;;;;;;;;;;5133399;28;19923;-42
2024/01/03 08:45:02;;;;;;;;;;;;;;;;;;5134015;28;19930;-41
2024/01/03 08:47:28;;;;;;;;;;;;;;;;;;5134799;28;19923;-41
2024/01/03 08:49:53;;;;;;;;;;;;;;;;;;5133900;28;19980;-40
2024/01/03 08:52:19;;;;;;;;;;;;;;;;;;5132935;28;20301;-41
2024/01/03 08:54:44;;;;;;;;;;;;;;;;;;5134570;28;19927;-42
2024/01/03 08:57:10;;;;;;;;;;;;;;;;;;5133125;28;19928;-40
2024/01/03 08:59:36;;;;;;;;;;;;;;;;;;5134578;28;20290;-41
2024/01/03 09:02:01;;;;;;;;;;;;;;;;;;5134074;28;19931;-40
2024/01/03 09:04:27;;;;;;;;;;;;;;;;;;5133981;28;19924;-42
2024/01/03 09:06:52;;;;;;;;;;;;;;;;;;5134172;27;20256;-41
2024/01/03 09:09:18;;;;;;;;;;;;;;;;;;5133682;28;20007;-42
2024/01/03 09:11:43;;;;;;;;;;;;;;;;;;5133239;28;19931;-40
2024/01/03 09:14:09;;;;;;;;;;;;;;;;;;5133274;28;19930;-43
2024/01/03 09:16:34;;;;;;;;;;;;;;;;;;5133651;28;19924;-42
2024/01/03 09:19:01;;;;;;;;;;;;;;;;;;5133791;28;19923;-41
2024/01/03 09:21:27;;;;;;;;;;;;;;;;;;5133500;28;20034;-41
2024/01/03 09:23:52;;;;;;;;;;;;;;;;;;5133794;28;20255;-42
2024/01/03 09:26:18;;;;;;;;;;;;;;;;;;5133511;28;19928;-40
2024/01/03 09:28:43;;;;;;;;;;;;;;;;;;5133807;28;19927;-41
2024/01/03 09:31:09;;;;;;;;;;;;;;;;;;5134665;27;19967;-40
2024/01/03 09:33:34;;;;;;;;;;;;;;;;;;5133190;28;19928;-40
2024/01/03 09:36:00;;;;;;;;;;;;;;;;;;5133941;28;19930;-40
2024/01/03 09:38:26;;;;;;;;;;;;;;;;;;5132466;28;20021;-42
2024/01/03 09:40:51;;;;;;;;;;;;;;;;;;5133094;27;20442;-40
2024/01/03 09:43:17;;;;;;;;;;;;;;;;;;5133342;28;20030;-40
2024/01/03 09:45:43;;;;;;;;;;;;;;;;;;5133562;28;19968;-40
2024/01/03 09:48:09;;;;;;;;;;;;;;;;;;5133934;28;19923;-42
2024/01/03 09:50:35;;;;;;;;;;;;;;;;;;5132874;28;19924;-41
2024/01/03 09:53:00;;;;;;;;;;;;;;;;;;5133678;28;19928;-41
2024/01/03 09:55:29;;;;;;;;;;;;;;;;;;5133384;28;19963;-40
2024/01/03 09:57:54;;;;;;;;;;;;;;;;;;5133653;28;19931;-40
2024/01/03 10:00:20;;;;;;;;;;;;;;;;;;5133329;28;19980;-40
2024/01/03 10:02:47;;;;;;;;;;;;;;;;;;5132937;28;19938;-41
2024/01/03 10:05:13;;;;;;;;;;;;;;;;;;5133366;28;19923;-39
2024/01/03 10:07:40;;;;;;;;;;;;;;;;;;5133667;28;20414;-40
2024/01/03 10:10:05;;;;;;;;;;;;;;;;;;5130838;28;19931;-41
2024/01/03 10:12:32;;;;;;;;;;;;;;;;;;5114835;28;19924;-41
2024/01/03 10:14:57;;;;;;;;;;;;;;;;;;5112284;28;19924;-42
2024/01/03 10:17:23;;;;;;;;;;;;;;;;;;5123929;28;19956;-40
2024/01/03 10:19:48;;;;;;;;;;;;;;;;;;5125488;28;19923;-40
2024/01/03 10:22:16;;;;;;;;;;;;;;;;;;5112676;28;19971;-44
2024/01/03 10:24:46;;;;;;;;;;;;;;;;;;5112520;28;19992;-42
2024/01/03 10:27:11;;;;;;;;;;;;;;;;;;5125760;28;19974;-42
2024/01/03 10:29:37;;;;;;;;;;;;;;;;;;5131088;28;19930;-41
2024/01/03 10:32:05;;;;;;;;;;;;;;;;;;5131033;28;20332;-40
2024/01/03 10:34:30;;;;;;;;;;;;;;;;;;5133104;28;20024;-41
2024/01/03 10:36:56;;;;;;;;;;;;;;;;;;5132968;28;20322;-40
2024/01/03 10:39:22;;;;;;;;;;;;;;;;;;5132049;28;19927;-40
2024/01/03 10:41:48;;;;;;;;;;;;;;;;;;5132383;28;19970;-41
2024/01/03 10:44:14;;;;;;;;;;;;;;;;;;5132724;28;20397;-41
2024/01/03 10:46:39;;;;;;;;;;;;;;;;;;5132037;28;19972;-42
2024/01/03 10:49:06;;;;;;;;;;;;;;;;;;5132932;28;19924;-40
2024/01/03 10:51:32;;;;;;;;;;;;;;;;;;5133879;27;19923;-39
2024/01/03 10:53:58;;;;;;;;;;;;;;;;;;5135972;28;19924;-43
2024/01/03 10:56:24;;;;;;;;;;;;;;;;;;5136522;28;20408;-43
2024/01/03 10:58:49;;;;;;;;;;;;;;;;;;5135885;28;19966;-42
2024/01/03 11:01:16;;;;;;;;;;;;;;;;;;5136552;28;19923;-41
2024/01/03 11:03:41;;;;;;;;;;;;;;;;;;5135935;28;19931;-41
2024/01/03 11:06:07;;;;;;;;;;;;;;;;;;5123433;28;19998;-41
2024/01/03 11:08:32;;;;;;;;;;;;;;;;;;5135245;28;20010;-41
2024/01/03 11:10:59;;;;;;;;;;;;;;;;;;5135154;28;19962;-41
2024/01/03 11:13:24;;;;;;;;;;;;;;;;;;5135503;28;19931;-40
2024/01/03 11:15:50;;;;;;;;;;;;;;;;;;5134409;28;19927;-43
2024/01/03 11:18:16;;;;;;;;;;;;;;;;;;5134968;28;19924;-39
2024/01/03 11:20:42;;;;;;;;;;;;;;;;;;5135961;28;20391;-42
2024/01/03 11:23:07;;;;;;;;;;;;;;;;;;5135758;28;19963;-41
2024/01/03 11:25:33;;;;;;;;;;;;;;;;;;5135638;28;19961;-40
2024/01/03 11:27:58;;;;;;;;;;;;;;;;;;5135640;28;19966;-42
2024/01/03 11:30:24;;;;;;;;;;;;;;;;;;5126152;28;19958;-40
2024/01/03 11:32:49;;;;;;;;;;;;;;;;;;5135191;28;19930;-39
2024/01/03 11:35:15;;;;;;;;;;;;;;;;;;5136010;28;19967;-42
2024/01/03 11:37:40;;;;;;;;;;;;;;;;;;5135727;28;19966;-40
2024/01/03 11:40:08;;;;;;;;;;;;;;;;;;5135294;27;19947;-40
2024/01/03 11:42:34;;;;;;;;;;;;;;;;;;5135245;28;19930;-41
2024/01/03 11:44:59;;;;;;;;;;;;;;;;;;5135193;28;19927;-43
2024/01/03 11:47:25;;;;;;;;;;;;;;;;;;5132408;28;19929;-40
2024/01/03 11:49:50;;;;;;;;;;;;;;;;;;5135427;28;20015;-42
2024/01/03 11:52:16;;;;;;;;;;;;;;;;;;5135515;28;19967;-40
2024/01/03 11:54:41;;;;;;;;;;;;;;;;;;5135514;28;20320;-41
2024/01/03 11:57:06;;;;;;;;;;;;;;;;;;5135423;28;19924;-40
2024/01/03 11:59:33;;;;;;;;;;;;;;;;;;5135583;28;20041;-40
2024/01/03 12:01:58;;;;;;;;;;;;;;;;;;5135110;27;19923;-41
2024/01/03 12:04:24;;;;;;;;;;;;;;;;;;5134263;28;20021;-39
2024/01/03 12:06:49;;;;;;;;;;;;;;;;;;5135121;28;20063;-40
2024/01/03 12:09:15;;;;;;;;;;;;;;;;;;5135092;28;19959;-41
2024/01/03 12:11:40;;;;;;;;;;;;;;;;;;5135287;28;19924;-41
2024/01/03 12:14:06;;;;;;;;;;;;;;;;;;5135240;28;19968;-41
2024/01/03 12:16:31;;;;;;;;;;;;;;;;;;5134749;28;20514;-39
2024/01/03 12:18:57;;;;;;;;;;;;;;;;;;5135073;28;20345;-42
2024/01/03 12:21:23;;;;;;;;;;;;;;;;;;5135110;28;20076;-41
2024/01/03 12:23:48;;;;;;;;;;;;;;;;;;5135208;28;19970;-41
2024/01/03 12:26:14;;;;;;;;;;;;;;;;;;5134692;28;20369;-42
2024/01/03 12:28:39;;;;;;;;;;;;;;;;;;5134653;28;20407;-40
2024/01/03 12:31:04;;;;;;;;;;;;;;;;;;5134780;28;20393;-42
2024/01/03 12:33:30;;;;;;;;;;;;;;;;;;5130431;28;19970;-39
2024/01/03 12:36:01;;;;;;;;;;;;;;;;;;5133215;27;20397;-41
2024/01/03 12:38:28;;;;;;;;;;;;;;;;;;5133785;28;20014;-40
2024/01/03 12:40:53;;;;;;;;;;;;;;;;;;5134019;28;20394;-43
2024/01/03 12:43:19;;;;;;;;;;;;;;;;;;5133980;28;19969;-40
2024/01/03 12:45:46;;;;;;;;;;;;;;;;;;5133912;28;19931;-39
2024/01/03 12:48:11;;;;;;;;;;;;;;;;;;5133955;28;19931;-40
2024/01/03 12:50:40;;;;;;;;;;;;;;;;;;5133358;28;20042;-40
2024/01/03 12:53:05;;;;;;;;;;;;;;;;;;5133626;28;20259;-41
2024/01/03 12:55:30;;;;;;;;;;;;;;;;;;5134193;28;20420;-44
2024/01/03 12:57:56;;;;;;;;;;;;;;;;;;5129813;28;19923;-41
2024/01/03 13:00:21;;;;;;;;;;;;;;;;;;5133767;28;20014;-40
2024/01/03 13:02:47;;;;;;;;;;;;;;;;;;5133584;28;19963;-42
2024/01/03 13:05:12;;;;;;;;;;;;;;;;;;5134185;28;20434;-40
2024/01/03 13:07:40;;;;;;;;;;;;;;;;;;5133151;28;19931;-40
2024/01/03 13:10:06;;;;;;;;;;;;;;;;;;5133860;28;19971;-41
2024/01/03 13:12:32;;;;;;;;;;;;;;;;;;5133483;28;20006;-41
2024/01/03 13:14:57;;;;;;;;;;;;;;;;;;5132927;27;20290;-41
2024/01/03 13:17:24;;;;;;;;;;;;;;;;;;5133914;28;20010;-41
2024/01/03 13:19:50;;;;;;;;;;;;;;;;;;5133648;28;19936;-43
2024/01/03 13:22:15;;;;;;;;;;;;;;;;;;5133704;28;20259;-43
2024/01/03 13:24:42;;;;;;;;;;;;;;;;;;5133432;28;20014;-42
2024/01/03 13:27:07;;;;;;;;;;;;;;;;;;5133266;28;19934;-40
2024/01/03 13:29:33;;;;;;;;;;;;;;;;;;5133629;28;20275;-41
2024/01/03 13:31:58;;;;;;;;;;;;;;;;;;5133141;28;20279;-42
2024/01/03 13:34:24;;;;;;;;;;;;;;;;;;5131999;28;19992;-40
2024/01/03 13:36:50;;;;;;;;;;;;;;;;;;5133507;28;19966;-39
2024/01/03 13:39:15;;;;;;;;;;;;;;;;;;5132734;28;19974;-40
2024/01/03 13:41:41;;;;;;;;;;;;;;;;;;5133346;28;20363;-41
2024/01/03 13:44:07;;;;;;;;;;;;;;;;;;5132076;28;20441;-40
2024/01/03 13:46:32;;;;;;;;;;;;;;;;;;5131203;28;19931;-40
2024/01/03 13:48:58;;;;;;;;;;;;;;;;;;5129141;28;19930;-41
2024/01/03 13:51:23;;;;;;;;;;;;;;;;;;5131570;28;20438;-41
2024/01/03 13:53:50;;;;;;;;;;;;;;;;;;5132158;28;21278;-41
2024/01/03 13:56:15;;;;;;;;;;;;;;;;;;5132833;28;19923;-40
2024/01/03 13:58:45;;;;;;;;;;;;;;;;;;5133185;28;19997;-40
2024/01/03 14:01:11;;;;;;;;;;;;;;;;;;5133466;28;19923;-40
2024/01/03 14:03:36;;;;;;;;;;;;;;;;;;5132677;28;20329;-41
2024/01/03 14:06:02;;;;;;;;;;;;;;;;;;5132893;28;19931;-40
2024/01/03 14:08:27;;;;;;;;;;;;;;;;;;5128904;28;19967;-40
2024/01/03 14:10:53;;;;;;;;;;;;;;;;;;5132458;28;19931;-39
2024/01/03 14:13:18;;;;;;;;;;;;;;;;;;5132932;28;20014;-40
2024/01/03 14:15:44;;;;;;;;;;;;;;;;;;5132580;28;20001;-41
2024/01/03 14:18:09;;;;;;;;;;;;;;;;;;5132979;28;19924;-40
2024/01/03 14:20:35;;;;;;;;;;;;;;;;;;5131324;28;19932;-40
2024/01/03 14:23:03;;;;;;;;;;;;;;;;;;5132979;28;19966;-40
2024/01/03 14:25:28;;;;;;;;;;;;;;;;;;5132239;27;19980;-41
2024/01/03 14:27:54;;;;;;;;;;;;;;;;;;5130580;28;19931;-42
2024/01/03 14:30:19;;;;;;;;;;;;;;;;;;5131459;27;19923;-41
2024/01/03 14:32:45;;;;;;;;;;;;;;;;;;5130737;28;20355;-39
2024/01/03 14:35:11;;;;;;;;;;;;;;;;;;5132656;28;20437;-41
2024/01/03 14:37:36;;;;;;;;;;;;;;;;;;5128226;28;19924;-42
2024/01/03 14:40:05;;;;;;;;;;;;;;;;;;5120985;28;19945;-40
2024/01/03 14:42:34;;;;;;;;;;;;;;;;;;5132342;28;19924;-41
2024/01/03 14:44:59;;;;;;;;;;;;;;;;;;5130151;28;20413;-40
2024/01/03 14:47:24;;;;;;;;;;;;;;;;;;5128137;28;20017;-39
2024/01/03 14:49:50;;;;;;;;;;;;;;;;;;5126838;28;19970;-40
2024/01/03 14:52:17;;;;;;;;;;;;;;;;;;5130207;28;20018;-40
2024/01/03 14:54:43;;;;;;;;;;;;;;;;;;5130867;27;19927;-40
2024/01/03 14:57:09;;;;;;;;;;;;;;;;;;5128847;28;20472;-41
2024/01/03 14:59:35;;;;;;;;;;;;;;;;;;5120016;27;19924;-39
2024/01/03 15:02:01;;;;;;;;;;;;;;;;;;5132033;28;19976;-41
2024/01/03 15:04:26;;;;;;;;;;;;;;;;;;5130552;28;19974;-41
2024/01/03 15:06:52;;;;;;;;;;;;;;;;;;5131877;28;20014;-40
2024/01/03 15:09:17;;;;;;;;;;;;;;;;;;5130219;28;20025;-42
2024/01/03 15:11:43;;;;;;;;;;;;;;;;;;5131597;28;19966;-41
2024/01/03 15:14:09;;;;;;;;;;;;;;;;;;5128536;28;19930;-43
2024/01/03 15:16:36;;;;;;;;;;;;;;;;;;5120907;28;19968;-42
2024/01/03 15:19:02;;;;;;;;;;;;;;;;;;5131617;28;19923;-42
2024/01/03 15:21:27;;;;;;;;;;;;;;;;;;5132202;28;20286;-39
2024/01/03 15:23:53;;;;;;;;;;;;;;;;;;5131626;28;19931;-39
2024/01/03 15:26:18;;;;;;;;;;;;;;;;;;5131551;28;19946;-41
2024/01/03 15:28:44;;;;;;;;;;;;;;;;;;5128357;28;19927;-40
2024/01/03 15:31:09;;;;;;;;;;;;;;;;;;5131461;28;19931;-40
2024/01/03 15:33:35;;;;;;;;;;;;;;;;;;5131105;28;19924;-41
2024/01/03 15:36:01;;;;;;;;;;;;;;;;;;5130791;28;19930;-39
2024/01/03 15:38:27;;;;;;;;;;;;;;;;;;5131108;27;19924;-40
2024/01/03 15:40:52;;;;;;;;;;;;;;;;;;5126080;28;19938;-41
2024/01/03 15:43:18;;;;;;;;;;;;;;;;;;5135184;28;20490;-39
2024/01/03 15:45:44;;;;;;;;;;;;;;;;;;5134976;28;20416;-40
2024/01/03 15:48:09;;;;;;;;;;;;;;;;;;5135108;28;20031;-40
2024/01/03 15:50:35;;;;;;;;;;;;;;;;;;5132242;28;20283;-43
2024/01/03 15:53:00;;;;;;;;;;;;;;;;;;5135110;28;20026;-40
2024/01/03 15:55:26;;;;;;;;;;;;;;;;;;5135183;28;19973;-40
2024/01/03 15:57:51;;;;;;;;;;;;;;;;;;5134793;28;20026;-41
2024/01/03 16:00:16;;;;;;;;;;;;;;;;;;5134425;28;20010;-42
2024/01/03 16:02:43;;;;;;;;;;;;;;;;;;5135241;28;19963;-40
2024/01/03 16:05:10;;;;;;;;;;;;;;;;;;5134829;28;19932;-42
2024/01/03 16:07:36;;;;;;;;;;;;;;;;;;5132721;28;19972;-42
2024/01/03 16:10:01;;;;;;;;;;;;;;;;;;5132476;28;19972;-41
2024/01/03 16:12:27;;;;;;;;;;;;;;;;;;5123107;28;19951;-41
2024/01/03 16:14:52;;;;;;;;;;;;;;;;;;5134184;28;20285;-42
2024/01/03 16:17:18;;;;;;;;;;;;;;;;;;5134647;28;19959;-40
2024/01/03 16:19:43;;;;;;;;;;;;;;;;;;5121625;28;20493;-42
2024/01/03 16:22:09;;;;;;;;;;;;;;;;;;5134493;28;19946;-41
2024/01/03 16:24:34;;;;;;;;;;;;;;;;;;5134663;28;19966;-41
2024/01/03 16:27:04;;;;;;;;;;;;;;;;;;5134703;28;19928;-40
2024/01/03 16:29:30;;;;;;;;;;;;;;;;;;5133440;28;19928;-39
2024/01/03 16:31:55;;;;;;;;;;;;;;;;;;5134295;28;19931;-41
2024/01/03 16:34:25;;;;;;;;;;;;;;;;;;5134424;28;20386;-39
2024/01/03 16:36:50;;;;;;;;;;;;;;;;;;5134640;27;20339;-40
2024/01/03 16:39:16;;;;;;;;;;;;;;;;;;5129922;28;20002;-41
2024/01/03 16:41:41;;;;;;;;;;;;;;;;;;5133825;28;20349;-39